Time;durP1;ratioP1;P1;durP2;ratioP2;P2;SDS_P1;SDS_P2;PMS_P1;PMS_P2;Temp;Humidity;BMP_temperature;BMP_pressure;BME280_temperature;BME280_humidity;BME280_pressure;Samples;Min_cycle;Max_cycle;Signal;HPM_P1;HPM_P2
2023/01/31 00:01:18;;;;;;;15.30;7.65;;;7.90;99.90;;;6.93;100.00;102719.47;5097148;23;20009;-75
2023/01/31 00:03:19;;;;;;;21.77;8.52;;;7.90;99.90;;;6.96;100.00;102714.88;5097283;23;20009;-75
2023/01/31 00:05:20;;;;;;;23.17;9.57;;;7.90;99.90;;;6.95;100.00;102723.69;5123235;23;20341;-75
2023/01/31 00:07:21;;;;;;;17.13;9.75;;;7.90;99.90;;;6.95;100.00;102726.31;5122987;23;20001;-75
2023/01/31 00:09:21;;;;;;;21.60;10.07;;;7.90;99.90;;;6.93;100.00;102724.72;5123626;23;20000;-75
2023/01/31 00:11:26;;;;;;;16.20;8.23;;;7.90;99.90;;;6.97;100.00;102737.56;5097247;23;20378;-76
2023/01/31 00:13:27;;;;;;;16.48;8.43;;;7.90;99.90;;;6.93;100.00;102729.97;5097357;23;20005;-75
2023/01/31 00:15:28;;;;;;;16.92;7.78;;;7.90;99.90;;;6.93;100.00;102735.22;5097057;23;20016;-75
2023/01/31 00:17:28;;;;;;;14.60;7.32;;;7.90;99.90;;;6.95;100.00;102736.81;5072038;23;20458;-76
2023/01/31 00:19:29;;;;;;;15.70;7.38;;;7.90;99.90;;;6.96;100.00;102729.78;5123531;23;20012;-75
2023/01/31 00:21:31;;;;;;;20.90;8.27;;;7.90;99.90;;;6.95;100.00;102730.72;5072346;23;20006;-76
2023/01/31 00:23:32;;;;;;;17.88;9.45;;;7.90;99.90;;;6.95;100.00;102730.72;5122906;23;20008;-76
2023/01/31 00:25:33;;;;;;;22.55;9.43;;;7.90;99.90;;;6.96;100.00;102729.78;5096561;23;20049;-75
2023/01/31 00:27:34;;;;;;;20.33;9.77;;;7.90;99.90;;;6.90;100.00;102717.84;5123258;23;20496;-75
2023/01/31 00:29:35;;;;;;;25.02;9.63;;;7.90;99.90;;;6.93;100.00;102732.59;5072315;23;20006;-76
2023/01/31 00:31:35;;;;;;;18.65;9.10;;;7.90;99.90;;;6.91;100.00;102729.19;5123160;23;20001;-75
2023/01/31 00:33:40;;;;;;;20.17;9.07;;;7.90;99.90;;;6.92;100.00;102728.25;5096763;23;20001;-76
2023/01/31 00:35:41;;;;;;;19.90;9.35;;;7.90;99.90;;;6.95;100.00;102728.94;5097206;23;20006;-76
2023/01/31 00:37:41;;;;;;;23.08;9.52;;;7.90;99.90;;;6.94;100.00;102723.75;5123015;23;20012;-76
2023/01/31 00:39:42;;;;;;;21.58;7.55;;;7.90;99.90;;;6.99;100.00;102738.31;5096652;23;20009;-75
2023/01/31 00:41:43;;;;;;;17.60;8.18;;;8.00;99.90;;;7.02;100.00;102739.91;5122990;23;20013;-76
2023/01/31 00:43:44;;;;;;;20.55;7.85;;;8.00;99.90;;;6.99;100.00;102730.44;5122922;23;20060;-75
2023/01/31 00:45:45;;;;;;;20.58;8.30;;;8.00;99.90;;;7.05;100.00;102730.09;5096870;23;20006;-75
2023/01/31 00:47:46;;;;;;;14.18;7.50;;;8.00;99.90;;;7.05;100.00;102727.47;5123001;23;20001;-75
2023/01/31 00:49:46;;;;;;;16.92;8.07;;;8.00;99.90;;;7.07;100.00;102730.03;5123159;23;20001;-75
2023/01/31 00:51:47;;;;;;;17.92;7.10;;;8.00;99.90;;;7.04;100.00;102732.84;5122757;23;20005;-75
2023/01/31 00:53:49;;;;;;;18.17;7.82;;;8.00;99.90;;;7.05;100.00;102730.09;5096961;23;20050;-75
2023/01/31 00:55:54;;;;;;;16.80;8.82;;;8.00;99.90;;;7.06;100.00;102723.94;5096756;23;20097;-75
2023/01/31 00:57:55;;;;;;;21.98;7.35;;;8.00;99.90;;;7.00;100.00;102716.41;5097412;23;20049;-76
2023/01/31 00:59:56;;;;;;;16.10;7.35;;;8.00;99.90;;;7.03;100.00;102715.38;5096883;23;20013;-76
2023/01/31 01:01:57;;;;;;;20.75;7.70;;;8.00;99.90;;;6.98;100.00;102712.19;5123016;23;20009;-76
2023/01/31 01:03:58;;;;;;;23.20;8.27;;;8.00;99.90;;;6.97;100.00;102716.56;5096813;23;20009;-75
2023/01/31 01:05:59;;;;;;;27.92;10.82;;;7.90;99.90;;;6.94;100.00;102719.38;5096610;23;20013;-75
2023/01/31 01:08:00;;;;;;;37.53;14.25;;;7.90;99.90;;;6.94;100.00;102716.75;5121046;23;20437;-75
2023/01/31 01:10:01;;;;;;;38.55;14.55;;;7.90;99.90;;;6.91;100.00;102711.66;5123025;23;20001;-75
2023/01/31 01:12:02;;;;;;;34.25;13.85;;;7.90;99.90;;;6.91;100.00;102708.19;5122993;23;20337;-75
2023/01/31 01:14:03;;;;;;;26.23;10.77;;;7.90;99.90;;;6.87;100.00;102685.69;5122918;23;20004;-75
2023/01/31 01:16:26;;;;;;;30.27;10.25;;;7.90;99.90;;;6.88;100.00;102690.84;5096803;23;20005;-75
2023/01/31 01:18:28;;;;;;;51.92;15.43;;;7.90;99.90;;;6.91;100.00;102700.31;5097069;23;20013;-75
2023/01/31 01:20:29;;;;;;;39.00;14.65;;;7.80;99.90;;;6.85;100.00;102698.88;5122903;23;20005;-75
2023/01/31 01:22:30;;;;;;;33.75;12.07;;;7.80;99.90;;;6.88;100.00;102698.72;5096944;23;20047;-75
2023/01/31 01:24:31;;;;;;;28.95;10.55;;;7.80;99.90;;;6.88;100.00;102697.88;5096851;23;20005;-76
2023/01/31 01:26:33;;;;;;;18.63;8.13;;;7.80;99.90;;;6.85;100.00;102690.16;5122609;23;20005;-76
2023/01/31 01:28:34;;;;;;;19.48;7.18;;;7.80;99.90;;;6.87;100.00;102693.56;5096588;23;20025;-75
2023/01/31 01:30:38;;;;;;;20.08;8.63;;;7.80;99.90;;;6.87;100.00;102690.94;5122886;23;20008;-75
2023/01/31 01:32:38;;;;;;;23.88;8.63;;;7.80;99.90;;;6.88;100.00;102701.34;5096992;23;20030;-76
2023/01/31 01:34:39;;;;;;;26.67;8.88;;;7.80;99.90;;;6.84;100.00;102696.38;5138651;23;20013;-76
2023/01/31 01:36:41;;;;;;;30.52;10.73;;;7.80;99.90;;;6.81;100.00;102699.97;5121312;23;20009;-76
2023/01/31 01:38:44;;;;;;;19.75;7.70;;;7.70;99.90;;;6.82;100.00;102700.81;5121473;23;20005;-76
2023/01/31 01:40:45;;;;;;;20.02;5.80;;;7.80;99.90;;;6.82;100.00;102692.97;5121504;23;20469;-75
2023/01/31 01:42:46;;;;;;;13.82;6.65;;;7.80;99.90;;;6.81;100.00;102699.97;5096988;23;20005;-76
2023/01/31 01:44:56;;;;;;;18.77;7.80;;;7.80;99.90;;;6.79;100.00;102696.59;5147735;23;20464;-76
2023/01/31 01:46:59;;;;;;;14.85;7.10;;;7.70;99.90;;;6.74;100.00;102687.28;5147913;23;20005;-75
2023/01/31 01:49:01;;;;;;;27.83;7.82;;;7.70;99.90;;;6.77;100.00;102697.63;5121389;23;20192;-75
2023/01/31 01:51:05;;;;;;;16.75;6.55;;;7.70;99.90;;;6.75;100.00;102689.00;5121438;23;20576;-75
2023/01/31 01:53:20;;;;;;;17.80;7.50;;;7.70;99.90;;;6.74;100.00;102693.38;5121260;23;20008;-75
2023/01/31 01:55:32;;;;;;;21.42;8.48;;;7.70;99.90;;;6.74;100.00;102680.28;5123277;23;20083;-75
2023/01/31 01:57:39;;;;;;;22.33;9.25;;;7.70;99.90;;;6.73;100.00;102680.34;5149199;23;20074;-76
2023/01/31 02:00:03;;;;;;;19.23;8.63;;;7.70;99.90;;;6.68;100.00;102684.09;5149091;23;20012;-76
2023/01/31 02:02:04;;;;;;;18.77;8.45;;;7.60;99.90;;;6.60;100.00;102688.88;5100945;23;20043;-75
2023/01/31 02:04:11;;;;;;;26.40;8.93;;;7.60;99.90;;;6.59;100.00;102694.22;5122738;23;20061;-75
2023/01/31 02:06:14;;;;;;;20.40;8.70;;;7.50;99.90;;;6.50;100.00;102690.31;5149155;23;20017;-75
2023/01/31 02:08:20;;;;;;;20.50;8.38;;;7.50;99.90;;;6.44;100.00;102688.03;5122514;23;20057;-75
2023/01/31 02:10:48;;;;;;;19.45;7.65;;;7.40;99.90;;;6.41;100.00;102690.81;5123381;23;20088;-76
2023/01/31 02:12:49;;;;;;;23.58;8.00;;;7.40;99.90;;;6.43;100.00;102698.56;5126535;23;19997;-76
2023/01/31 02:14:52;;;;;;;25.83;10.13;;;7.40;99.90;;;6.41;100.00;102696.06;5122891;23;20008;-75
2023/01/31 02:16:53;;;;;;;19.17;8.43;;;7.40;99.90;;;6.40;100.00;102683.88;5122353;23;20044;-75
2023/01/31 02:18:55;;;;;;;19.25;7.53;;;7.40;99.90;;;6.39;100.00;102686.59;5149167;23;20062;-75
2023/01/31 02:21:17;;;;;;;19.35;9.38;;;7.40;99.90;;;6.37;100.00;102684.03;5122702;23;20063;-75
2023/01/31 02:24:16;;;;;;;16.40;8.57;;;7.30;99.90;;;6.35;100.00;102690.28;5148494;23;20012;-75
2023/01/31 02:26:54;;;;;;;14.30;6.95;;;7.30;99.90;;;6.35;100.00;102680.66;5086101;23;20406;-75
2023/01/31 02:29:41;;;;;;;14.65;6.90;;;7.30;99.90;;;6.32;100.00;102680.81;5148918;23;20012;-75
2023/01/31 02:32:21;;;;;;;15.60;7.57;;;7.30;99.90;;;6.29;100.00;102675.75;5148893;23;20008;-75
2023/01/31 02:34:41;;;;;;;18.75;8.27;;;7.30;99.90;;;6.24;100.00;102671.66;5148808;23;20019;-76
2023/01/31 02:37:28;;;;;;;20.65;8.63;;;7.20;99.90;;;6.18;100.00;102667.59;5148705;23;20008;-75
2023/01/31 02:39:40;;;;;;;19.55;8.40;;;7.20;99.90;;;6.15;100.00;102675.63;5048707;23;20011;-75
2023/01/31 02:41:58;;;;;;;19.73;8.38;;;7.10;99.90;;;6.14;100.00;102671.31;5048625;23;20010;-75
2023/01/31 02:46:58;;;;;;;23.08;8.95;;;7.10;99.90;;;6.17;100.00;102675.53;5148626;23;20018;-76
2023/01/31 02:49:41;;;;;;;18.77;9.35;;;7.10;99.90;;;6.16;100.00;102689.53;5148921;23;20059;-75
2023/01/31 02:52:15;;;;;;;18.83;9.15;;;7.10;99.90;;;6.10;100.00;102673.22;5108035;23;20333;-75
2023/01/31 02:54:19;;;;;;;19.35;8.43;;;7.10;99.90;;;6.17;100.00;102678.16;5127120;23;20011;-75
2023/01/31 02:56:32;;;;;;;30.52;11.10;;;7.10;99.90;;;6.18;100.00;102685.94;5123383;23;20456;-75
2023/01/31 02:58:37;;;;;;;24.25;11.93;;;7.20;99.90;;;6.19;100.00;102684.16;5097595;23;20092;-75
2023/01/31 03:00:43;;;;;;;26.55;11.63;;;7.20;99.90;;;6.20;100.00;102691.94;5097622;23;20005;-75
2023/01/31 03:02:44;;;;;;;16.65;9.13;;;7.20;99.90;;;6.19;100.00;102692.84;5122853;23;20032;-76
2023/01/31 03:04:45;;;;;;;19.55;8.88;;;7.20;99.90;;;6.24;100.00;102690.88;5122285;23;20009;-75
2023/01/31 03:06:58;;;;;;;24.70;11.05;;;7.20;99.90;;;6.27;100.00;102697.72;5121413;23;20013;-75
2023/01/31 03:09:24;;;;;;;19.33;11.43;;;7.20;99.90;;;6.23;100.00;102701.41;5123900;23;20005;-75
2023/01/31 03:11:59;;;;;;;17.63;10.48;;;7.20;99.90;;;6.23;100.00;102704.03;5123766;23;20052;-76
2023/01/31 03:14:46;;;;;;;18.88;8.32;;;7.20;99.90;;;6.19;100.00;102700.72;5148518;23;20007;-75
2023/01/31 03:19:42;;;;;;;21.85;10.43;;;7.10;99.90;;;6.21;100.00;102698.88;5125859;23;20126;-75
2023/01/31 03:22:09;;;;;;;19.30;9.75;;;7.20;99.90;;;6.17;100.00;102692.09;5105325;23;20021;-75
2023/01/31 03:24:13;;;;;;;22.10;11.00;;;7.10;99.90;;;6.13;100.00;102690.56;5126896;23;20068;-76
2023/01/31 03:26:16;;;;;;;26.02;11.95;;;7.20;99.90;;;6.17;100.00;102705.19;5122416;23;20032;-76
2023/01/31 03:28:24;;;;;;;20.92;9.20;;;7.20;99.90;;;6.16;100.00;102693.03;5122416;23;20336;-76
2023/01/31 03:30:42;;;;;;;24.80;10.30;;;7.10;99.90;;;6.17;100.00;102691.25;5122560;23;20024;-75
2023/01/31 03:32:54;;;;;;;15.45;8.07;;;7.20;99.90;;;6.19;100.00;102700.72;5148211;23;20062;-75
2023/01/31 03:34:56;;;;;;;19.95;8.43;;;7.20;99.90;;;6.19;100.00;102694.63;5122779;23;20468;-75
2023/01/31 03:37:36;;;;;;;19.98;9.00;;;7.20;99.90;;;6.23;100.00;102699.66;5096954;23;20017;-76
2023/01/31 03:39:56;;;;;;;18.77;7.80;;;7.20;99.90;;;6.21;100.00;102698.88;5125596;23;20009;-76
2023/01/31 03:42:12;;;;;;;15.43;7.43;;;7.20;99.90;;;6.20;100.00;102694.56;5148374;23;20353;-76
2023/01/31 03:44:28;;;;;;;12.93;6.70;;;7.20;99.90;;;6.17;100.00;102694.72;5123788;23;20036;-76
2023/01/31 03:46:38;;;;;;;12.95;6.55;;;7.10;99.90;;;6.22;100.00;102700.56;5122966;23;20377;-76
2023/01/31 03:48:45;;;;;;;13.20;5.07;;;7.20;99.90;;;6.20;100.00;102699.81;5122748;23;20012;-75
2023/01/31 03:50:58;;;;;;;13.00;5.10;;;7.20;99.90;;;6.20;100.00;102689.31;5097437;23;20045;-75
2023/01/31 03:53:11;;;;;;;10.93;4.78;;;7.20;99.90;;;6.19;100.00;102685.00;5121980;23;20349;-75
2023/01/31 03:55:19;;;;;;;10.83;5.27;;;7.20;99.90;;;6.25;100.00;102692.53;5122557;23;20001;-76
2023/01/31 03:57:35;;;;;;;13.23;5.15;;;7.20;99.90;;;6.25;100.00;102694.31;5122528;23;20008;-76
2023/01/31 03:59:39;;;;;;;16.27;5.60;;;7.20;99.90;;;6.26;100.00;102696.00;5122512;23;20008;-76
2023/01/31 04:01:47;;;;;;;16.00;4.65;;;7.20;99.90;;;6.24;100.00;102703.97;5122441;23;20005;-75
2023/01/31 04:04:16;;;;;;;15.65;4.35;;;7.20;99.90;;;6.28;100.00;102705.47;5122428;23;20438;-76
2023/01/31 04:06:17;;;;;;;21.75;5.45;;;7.20;99.90;;;6.28;100.00;102702.00;5148035;23;20005;-76
2023/01/31 04:08:19;;;;;;;15.07;4.03;;;7.30;99.90;;;6.34;100.00;102704.31;5147946;23;20035;-76
2023/01/31 04:10:21;;;;;;;13.48;4.35;;;7.20;99.90;;;6.34;100.00;102696.44;5148157;23;20314;-76
2023/01/31 04:12:22;;;;;;;15.25;4.90;;;7.30;99.90;;;6.33;100.00;102692.16;5148142;23;20449;-76
2023/01/31 04:14:22;;;;;;;19.20;5.15;;;7.30;99.90;;;6.27;100.00;102688.09;5096988;23;20089;-75
2023/01/31 04:16:23;;;;;;;15.38;5.07;;;7.30;99.90;;;6.32;100.00;102690.44;5148040;23;20345;-75
2023/01/31 04:18:24;;;;;;;15.50;4.20;;;7.30;99.90;;;6.28;100.00;102681.03;5148117;23;20005;-75
2023/01/31 04:20:25;;;;;;;11.80;3.78;;;7.30;99.90;;;6.31;100.00;102676.50;5121781;23;20323;-75
2023/01/31 04:22:27;;;;;;;16.50;5.13;;;7.30;99.90;;;6.34;100.00;102676.31;5121721;23;20005;-76
2023/01/31 04:24:27;;;;;;;12.93;4.80;;;7.30;99.90;;;6.31;100.00;102678.25;5147982;23;20076;-76
2023/01/31 04:26:28;;;;;;;15.27;4.75;;;7.30;99.90;;;6.31;100.00;102670.41;5147993;23;20012;-76
2023/01/31 04:28:29;;;;;;;13.27;4.00;;;7.30;99.90;;;6.28;100.00;102666.16;5121623;23;20008;-76
2023/01/31 04:30:30;;;;;;;16.08;3.90;;;7.30;99.90;;;6.31;100.00;102673.03;5121711;23;20059;-76
2023/01/31 04:32:31;;;;;;;11.02;4.30;;;7.30;99.90;;;6.29;100.00;102665.25;5121498;23;20442;-76
2023/01/31 04:34:32;;;;;;;10.05;3.97;;;7.30;99.90;;;6.31;100.00;102680.88;5121684;23;20009;-76
2023/01/31 04:36:33;;;;;;;16.40;4.75;;;7.30;99.90;;;6.30;100.00;102671.34;5121514;23;20005;-76
2023/01/31 04:38:34;;;;;;;15.10;3.85;;;7.30;99.90;;;6.29;100.00;102660.00;5096871;23;20047;-76
2023/01/31 04:40:34;;;;;;;11.75;3.92;;;7.30;99.90;;;6.25;100.00;102666.34;5121603;23;20345;-76
2023/01/31 04:42:35;;;;;;;12.15;3.50;;;7.30;99.90;;;6.24;100.00;102659.41;5096838;23;20005;-76
2023/01/31 04:44:36;;;;;;;13.80;3.40;;;7.20;99.90;;;6.26;100.00;102660.19;5121602;23;20434;-76
2023/01/31 04:46:37;;;;;;;9.30;3.42;;;7.20;99.90;;;6.23;100.00;102655.09;5147874;23;20008;-76
2023/01/31 04:48:40;;;;;;;13.65;3.58;;;7.20;99.90;;;6.25;100.00;102657.63;5148036;23;20429;-75
2023/01/31 04:50:41;;;;;;;15.35;3.50;;;7.20;99.90;;;6.22;100.00;102658.63;5148081;23;20079;-76
2023/01/31 04:52:41;;;;;;;18.15;4.35;;;7.20;99.90;;;6.25;100.00;102657.63;5096504;23;20016;-76
2023/01/31 04:54:42;;;;;;;12.77;3.30;;;7.20;99.90;;;6.24;100.00;102654.19;5148002;23;20004;-76
2023/01/31 04:56:43;;;;;;;14.65;3.63;;;7.20;99.90;;;6.20;100.00;102641.31;5148138;23;20013;-76
2023/01/31 04:58:44;;;;;;;11.73;3.35;;;7.20;99.90;;;6.20;100.00;102657.88;5147934;23;20398;-76
2023/01/31 05:00:45;;;;;;;9.63;3.03;;;7.20;99.90;;;6.19;100.00;102658.78;5147755;23;20051;-76
2023/01/31 05:02:46;;;;;;;15.73;4.32;;;7.20;99.90;;;6.19;100.00;102655.31;5121502;23;20005;-76
2023/01/31 05:04:47;;;;;;;10.38;3.38;;;7.20;99.90;;;6.18;100.00;102666.75;5121495;23;20336;-76
2023/01/31 05:06:48;;;;;;;11.40;3.75;;;7.20;99.90;;;6.16;100.00;102661.56;5121071;23;20015;-76
2023/01/31 05:08:51;;;;;;;14.50;4.05;;;7.10;99.90;;;6.15;100.00;102665.16;5121551;23;20040;-76
2023/01/31 05:11:07;;;;;;;12.77;3.80;;;7.10;99.90;;;6.10;100.00;102660.13;5121942;23;20021;-76
2023/01/31 05:13:09;;;;;;;11.65;4.03;;;7.10;99.90;;;6.13;100.00;102666.97;5147933;23;20005;-76
2023/01/31 05:15:10;;;;;;;15.73;5.38;;;7.10;99.90;;;6.12;100.00;102675.78;5147786;23;20004;-76
2023/01/31 05:17:11;;;;;;;14.30;4.53;;;7.10;99.90;;;6.07;100.00;102665.53;5121102;23;20009;-75
2023/01/31 05:19:15;;;;;;;13.80;3.40;;;7.10;99.90;;;6.10;100.00;102673.22;5121486;23;20377;-76
2023/01/31 05:21:16;;;;;;;11.02;3.60;;;7.10;99.90;;;6.09;100.00;102673.31;5121557;23;20084;-76
2023/01/31 05:23:18;;;;;;;15.02;4.20;;;7.00;99.90;;;6.09;100.00;102668.09;5147556;23;20433;-76
2023/01/31 05:25:18;;;;;;;17.75;3.05;;;7.10;99.90;;;6.09;100.00;102668.09;5147562;23;20007;-76
2023/01/31 05:27:19;;;;;;;12.18;3.05;;;7.10;99.90;;;6.07;100.00;102670.78;5121292;23;20001;-76
2023/01/31 05:29:20;;;;;;;13.25;3.40;;;7.00;99.90;;;6.08;100.00;102672.47;5147594;23;20007;-76
2023/01/31 05:31:21;;;;;;;12.40;3.40;;;7.00;99.90;;;6.05;100.00;102672.63;5149209;23;20059;-76
2023/01/31 05:33:22;;;;;;;16.73;4.15;;;7.00;99.90;;;6.09;100.00;102678.56;5149400;23;20384;-76
2023/01/31 05:35:23;;;;;;;12.43;3.08;;;7.00;99.90;;;6.06;100.00;102679.53;5124284;23;20020;-76
2023/01/31 05:37:24;;;;;;;14.70;4.10;;;7.00;99.90;;;6.06;100.00;102670.88;5124326;23;20067;-76
2023/01/31 05:39:25;;;;;;;12.15;2.92;;;7.00;99.90;;;6.06;100.00;102676.91;5098376;23;20005;-76
2023/01/31 05:41:26;;;;;;;15.80;3.30;;;7.00;99.90;;;6.02;100.00;102682.41;5098298;23;20476;-76
2023/01/31 05:43:26;;;;;;;11.10;3.17;;;7.00;99.90;;;6.02;100.00;102678.03;5124415;23;20005;-76
2023/01/31 05:45:28;;;;;;;11.10;3.13;;;7.00;99.90;;;6.02;100.00;102675.41;5073646;23;20378;-76
2023/01/31 05:47:29;;;;;;;17.15;3.45;;;7.00;99.90;;;6.03;100.00;102678.88;5098282;23;20002;-76
2023/01/31 05:49:32;;;;;;;14.02;2.97;;;7.00;99.90;;;6.01;100.00;102675.47;5073753;23;20010;-76
2023/01/31 05:51:33;;;;;;;13.05;2.58;;;7.00;99.90;;;6.06;100.00;102683.97;5098617;23;20326;-76
2023/01/31 05:53:33;;;;;;;11.48;2.55;;;7.00;99.90;;;6.03;100.00;102678.88;5124320;23;20044;-76
2023/01/31 05:55:34;;;;;;;11.35;3.03;;;7.00;99.90;;;6.04;100.00;102675.31;5098100;23;20016;-76
2023/01/31 05:57:35;;;;;;;12.50;3.45;;;7.00;99.90;;;5.97;100.00;102679.19;5098139;23;20458;-76
2023/01/31 05:59:36;;;;;;;13.23;3.22;;;6.90;99.90;;;6.00;100.00;102681.66;5098498;23;20013;-76
2023/01/31 06:01:37;;;;;;;10.55;3.15;;;6.90;99.90;;;5.97;100.00;102673.97;5124272;23;20005;-76
2023/01/31 06:03:38;;;;;;;8.82;2.70;;;6.90;99.90;;;5.98;100.00;102675.63;5098340;23;20006;-76
2023/01/31 06:05:39;;;;;;;11.70;2.42;;;6.90;99.90;;;6.02;100.00;102685.88;5098080;23;20438;-76
2023/01/31 06:07:40;;;;;;;7.70;2.53;;;6.90;99.90;;;5.97;100.00;102673.97;5123955;23;20067;-76
2023/01/31 06:09:41;;;;;;;11.15;2.80;;;7.00;99.90;;;5.97;100.00;102679.19;5098357;23;20069;-76
2023/01/31 06:11:43;;;;;;;14.25;3.00;;;6.90;99.90;;;5.94;100.00;102679.34;5124314;23;20005;-76
2023/01/31 06:13:44;;;;;;;11.40;2.63;;;6.90;99.90;;;5.92;100.00;102675.94;5097967;23;20005;-76
2023/01/31 06:15:45;;;;;;;12.35;2.70;;;6.90;99.90;;;5.90;100.00;102678.66;5124373;23;20019;-76
2023/01/31 06:17:46;;;;;;;10.50;2.67;;;6.90;99.90;;;5.92;100.00;102676.78;5124098;23;20005;-76
2023/01/31 06:19:47;;;;;;;12.50;3.50;;;6.90;99.90;;;5.91;100.00;102680.34;5124137;23;20005;-76
2023/01/31 06:21:48;;;;;;;12.30;2.72;;;6.90;99.90;;;5.93;100.00;102680.28;5123984;23;20013;-76
2023/01/31 06:23:48;;;;;;;8.50;2.33;;;6.90;99.90;;;5.92;100.00;102671.56;5124031;23;20012;-76
2023/01/31 06:25:51;;;;;;;9.80;1.98;;;6.90;99.90;;;5.92;100.00;102676.78;5123803;23;20437;-76
2023/01/31 06:27:54;;;;;;;10.65;3.92;;;6.90;99.90;;;5.89;100.00;102671.72;5123949;23;20001;-76
2023/01/31 06:29:55;;;;;;;8.90;2.83;;;6.90;99.90;;;5.92;100.00;102676.78;5124021;23;20011;-76
2023/01/31 06:31:56;;;;;;;10.73;2.70;;;6.90;99.90;;;5.90;100.00;102673.41;5123691;23;20001;-76
2023/01/31 06:33:57;;;;;;;12.00;2.38;;;6.90;99.90;;;5.88;100.00;102674.44;5097668;23;20056;-76
2023/01/31 06:35:59;;;;;;;12.35;3.17;;;6.90;99.90;;;5.91;100.00;102679.50;5097713;23;20048;-76
2023/01/31 06:38:00;;;;;;;6.20;2.28;;;6.90;99.90;;;5.93;100.00;102682.88;5097635;23;20044;-76
2023/01/31 06:40:01;;;;;;;10.98;2.83;;;6.90;99.90;;;5.91;100.00;102690.00;5123889;23;20346;-76
2023/01/31 06:42:02;;;;;;;11.80;3.03;;;6.90;99.90;;;5.86;100.00;102681.50;5123426;23;20012;-76
2023/01/31 06:44:03;;;;;;;16.95;4.63;;;6.90;99.90;;;5.84;100.00;102683.31;5097797;23;20366;-76
2023/01/31 06:46:04;;;;;;;8.85;2.20;;;6.90;99.90;;;5.85;100.00;102685.03;5097620;23;20009;-76
2023/01/31 06:48:05;;;;;;;12.25;2.83;;;6.80;99.90;;;5.87;100.00;102696.28;5097968;23;20464;-76
2023/01/31 06:50:06;;;;;;;7.85;2.70;;;6.80;99.90;;;5.84;100.00;102688.56;5123855;23;20001;-76
2023/01/31 06:52:07;;;;;;;11.13;2.22;;;6.80;99.90;;;5.87;100.00;102698.91;5097459;23;20002;-76
2023/01/31 06:54:08;;;;;;;14.15;2.92;;;6.80;99.90;;;5.81;100.00;102699.19;5123719;23;20001;-76
2023/01/31 06:56:09;;;;;;;8.43;2.50;;;6.80;99.90;;;5.81;100.00;102707.06;5097579;23;20430;-76
2023/01/31 06:58:10;;;;;;;13.98;3.42;;;6.80;99.90;;;5.79;100.00;102701.06;5097750;23;20029;-76
2023/01/31 07:00:12;;;;;;;12.38;3.17;;;6.80;99.90;;;5.80;100.00;102700.09;5097794;23;20038;-76
2023/01/31 07:02:13;;;;;;;10.55;2.45;;;6.80;99.90;;;5.84;100.00;102712.13;5097622;23;20031;-76
2023/01/31 07:04:14;;;;;;;10.80;2.88;;;6.80;99.90;;;5.81;100.00;102705.28;5123468;23;20009;-76
2023/01/31 07:06:17;;;;;;;5.78;2.92;;;6.80;99.90;;;5.80;100.00;102703.56;5097256;23;20014;-76
2023/01/31 07:08:18;;;;;;;9.85;2.85;;;6.80;99.90;;;5.78;100.00;102700.19;5097693;23;20362;-76
2023/01/31 07:10:19;;;;;;;10.63;2.75;;;6.80;99.90;;;5.81;100.00;102707.91;5097304;23;20002;-76
2023/01/31 07:12:19;;;;;;;11.18;2.78;;;6.80;99.90;;;5.78;100.00;102704.59;5097533;23;20469;-76
2023/01/31 07:14:20;;;;;;;8.90;2.60;;;6.80;99.90;;;5.81;100.00;102709.66;5097615;23;20005;-76
2023/01/31 07:16:24;;;;;;;8.13;2.33;;;6.80;99.90;;;5.77;100.00;102708.13;5123621;23;20012;-76
2023/01/31 07:18:25;;;;;;;10.35;2.97;;;6.80;99.90;;;5.79;100.00;102720.25;5123706;23;20005;-76
2023/01/31 07:20:26;;;;;;;9.88;2.67;;;6.80;99.90;;;5.82;100.00;102727.09;5096931;23;20067;-76
2023/01/31 07:22:27;;;;;;;10.95;2.63;;;6.70;99.90;;;5.78;100.00;102726.38;5097225;23;20080;-76
2023/01/31 07:24:28;;;;;;;16.40;3.70;;;6.80;99.90;;;5.78;100.00;102721.16;5123537;23;20012;-76
2023/01/31 07:26:29;;;;;;;11.73;3.08;;;6.80;99.90;;;5.79;100.00;102719.38;5097469;23;20005;-76
2023/01/31 07:28:30;;;;;;;12.25;2.92;;;6.80;99.90;;;5.79;100.00;102727.25;5097685;23;20032;-76
2023/01/31 07:30:31;;;;;;;11.35;2.72;;;6.80;99.90;;;5.77;100.00;102729.91;5097475;23;20014;-76
2023/01/31 07:32:33;;;;;;;12.65;3.03;;;6.70;99.90;;;5.77;100.00;102734.31;5097468;23;20006;-76
2023/01/31 07:34:34;;;;;;;13.05;2.90;;;6.70;99.90;;;5.77;100.00;102731.69;5121758;23;20013;-76
2023/01/31 07:36:35;;;;;;;13.73;2.72;;;6.70;99.90;;;5.76;100.00;102732.63;5123412;23;20012;-76
2023/01/31 07:38:35;;;;;;;10.90;3.03;;;6.70;99.90;;;5.77;100.00;102739.53;5123451;23;20016;-76
2023/01/31 07:40:38;;;;;;;9.00;2.83;;;6.70;99.90;;;5.75;100.00;102733.53;5123465;23;20005;-74
2023/01/31 07:42:40;;;;;;;13.20;2.55;;;6.70;99.90;;;5.74;100.00;102730.06;5094214;23;20044;-74
2023/01/31 07:44:41;;;;;;;13.10;2.95;;;6.70;99.90;;;5.75;100.00;102726.53;5122223;23;20429;-75
2023/01/31 07:46:42;;;;;;;12.05;2.63;;;6.70;99.90;;;5.72;100.00;102736.31;5122238;23;20012;-74
2023/01/31 07:48:43;;;;;;;8.93;2.75;;;6.80;99.90;;;5.80;100.00;102728.91;5122784;23;20337;-74
2023/01/31 07:50:43;;;;;;;12.52;2.95;;;6.80;99.90;;;5.79;100.00;102740.34;5072150;23;20013;-74
2023/01/31 07:52:44;;;;;;;14.95;2.85;;;6.80;99.90;;;5.79;100.00;102742.94;5121950;23;20039;-74
2023/01/31 07:54:46;;;;;;;7.43;1.83;;;6.80;99.90;;;5.80;100.00;102742.00;5096708;23;20005;-74
2023/01/31 07:56:46;;;;;;;8.30;1.90;;;6.70;99.90;;;5.81;100.00;102744.56;5096278;23;20005;-75
2023/01/31 07:58:49;;;;;;;9.52;2.42;;;6.80;99.90;;;5.84;100.00;102740.94;5096626;23;20060;-74
2023/01/31 08:03:33;;;;;;;8.00;2.20;;;6.80;99.90;;;5.89;100.00;102741.56;5122253;23;20019;-75
2023/01/31 08:05:34;;;;;;;11.48;2.97;;;6.80;99.90;;;5.88;100.00;102734.66;5098212;23;20077;-75
2023/01/31 08:07:34;;;;;;;8.55;2.70;;;6.90;99.90;;;5.94;100.00;102747.47;5095775;23;20394;-74
2023/01/31 08:09:37;;;;;;;8.55;2.60;;;6.90;99.90;;;5.90;100.00;102741.53;5122807;23;20008;-75
2023/01/31 08:11:38;;;;;;;8.55;2.60;;;6.90;99.90;;;5.96;100.00;102735.97;5096964;23;20002;-75
2023/01/31 08:13:39;;;;;;;8.77;2.47;;;6.90;99.90;;;5.99;100.00;102740.19;5095835;23;20017;-75
2023/01/31 08:15:40;;;;;;;9.13;2.30;;;6.90;99.90;;;5.99;100.00;102729.72;5122293;23;20005;-74
2023/01/31 08:17:41;;;;;;;10.73;2.08;;;7.00;99.90;;;6.04;100.00;102738.19;5121890;23;20005;-74
2023/01/31 08:19:42;;;;;;;7.25;2.25;;;7.00;99.90;;;6.07;100.00;102751.13;5121413;23;20009;-74
2023/01/31 08:21:43;;;;;;;7.45;2.53;;;7.00;99.90;;;6.13;100.00;102753.44;5096296;23;20013;-74
2023/01/31 08:23:45;;;;;;;15.68;3.70;;;7.10;99.90;;;6.10;100.00;102748.34;5096196;23;20013;-75
2023/01/31 08:25:45;;;;;;;12.93;2.53;;;7.10;99.90;;;6.17;100.00;102760.22;5096382;23;20084;-74
2023/01/31 08:27:46;;;;;;;12.60;2.88;;;7.10;99.90;;;6.13;100.00;102756.06;5122244;23;20001;-75
2023/01/31 08:29:47;;;;;;;9.32;2.42;;;7.10;99.90;;;6.19;100.00;102757.50;5096415;23;20001;-76
2023/01/31 08:31:48;;;;;;;11.15;3.40;;;7.20;99.90;;;6.15;100.00;102767.34;5096113;23;20005;-75
2023/01/31 08:33:51;;;;;;;9.27;2.83;;;7.20;99.90;;;6.15;100.00;102756.84;5095683;23;20021;-75
2023/01/31 08:35:52;;;;;;;13.73;3.20;;;7.20;99.90;;;6.25;100.00;102754.59;5096142;23;20036;-75
2023/01/31 08:37:53;;;;;;;13.20;2.90;;;7.20;99.90;;;6.30;100.00;102760.44;5095619;23;20006;-75
2023/01/31 08:39:54;;;;;;;10.90;2.05;;;7.20;99.90;;;6.36;100.00;102760.97;5121734;23;20009;-75
2023/01/31 08:41:55;;;;;;;12.35;2.20;;;7.30;99.90;;;6.38;100.00;102748.63;5095961;23;20014;-75
2023/01/31 08:43:56;;;;;;;11.88;2.25;;;7.30;99.90;;;6.47;100.00;102763.88;5122438;23;20013;-75
2023/01/31 08:45:57;;;;;;;4.50;1.55;;;7.40;99.90;;;6.56;100.00;102767.81;5071303;23;20016;-75
2023/01/31 08:47:59;;;;;;;6.55;1.90;;;7.40;99.90;;;6.59;100.00;102758.00;5095913;23;20015;-76